createdAt,value
2019-05-14T00:02:34.223Z,13.30
2019-05-14T00:05:23.624Z,13.28
2019-05-14T00:08:13.490Z,13.23
2019-05-14T00:11:04.036Z,13.23
2019-05-14T00:13:53.742Z,13.18
2019-05-14T00:16:44.536Z,13.21
2019-05-14T00:19:34.943Z,13.24
2019-05-14T00:22:25.043Z,13.24
2019-05-14T00:25:15.297Z,13.23
2019-05-14T00:28:05.166Z,13.23
2019-05-14T00:30:54.982Z,13.21
2019-05-14T00:33:45.054Z,13.21
2019-05-14T00:36:35.082Z,13.15
2019-05-14T00:39:24.626Z,13.16
2019-05-14T00:42:14.344Z,13.15
2019-05-14T00:45:04.286Z,13.09
2019-05-14T00:47:54.635Z,13.09
2019-05-14T00:50:45.146Z,13.05
2019-05-14T00:53:34.879Z,13.02
2019-05-14T00:56:26.181Z,13.00
2019-05-14T00:59:16.462Z,12.99
2019-05-14T01:02:06.876Z,12.92
2019-05-14T01:04:56.734Z,12.85
2019-05-14T01:07:46.927Z,12.82
2019-05-14T01:10:36.996Z,12.74
2019-05-14T01:13:26.889Z,12.66
2019-05-14T01:16:16.589Z,12.62
2019-05-14T01:19:06.398Z,12.55
2019-05-14T01:21:56.062Z,12.48
2019-05-14T01:24:47.392Z,12.43
2019-05-14T01:27:37.542Z,12.36
2019-05-14T01:30:27.622Z,12.28
2019-05-14T01:33:17.455Z,12.19
2019-05-14T01:36:07.310Z,12.12
2019-05-14T01:38:57.256Z,12.03
2019-05-14T01:41:47.489Z,11.92
2019-05-14T01:44:37.631Z,11.83
2019-05-14T01:47:27.943Z,11.71
2019-05-14T01:50:18.440Z,11.63
2019-05-14T01:53:08.432Z,11.52
2019-05-14T01:55:58.137Z,11.43
2019-05-14T01:58:47.846Z,11.35
2019-05-14T02:01:38.086Z,11.24
2019-05-14T02:04:27.611Z,11.13
2019-05-14T02:07:17.448Z,11.03
2019-05-14T02:10:08.506Z,10.94
2019-05-14T02:13:01.740Z,10.85
2019-05-14T02:15:52.074Z,10.76
2019-05-14T02:18:42.286Z,10.68
2019-05-14T02:21:32.559Z,10.60
2019-05-14T02:24:22.661Z,10.51
2019-05-14T02:27:12.566Z,10.44
2019-05-14T02:30:02.849Z,10.36
2019-05-14T02:32:52.879Z,10.29
2019-05-14T02:35:42.948Z,10.23
2019-05-14T02:38:33.085Z,10.17
2019-05-14T02:41:23.345Z,10.10
2019-05-14T02:44:13.550Z,10.03
2019-05-14T02:47:04.031Z,9.94
2019-05-14T02:49:53.786Z,9.87
2019-05-14T02:52:43.846Z,9.80
2019-05-14T02:55:34.229Z,9.74
2019-05-14T02:58:24.296Z,9.67
2019-05-14T03:01:14.134Z,9.60
2019-05-14T03:04:04.581Z,9.53
2019-05-14T03:06:55.672Z,9.46
2019-05-14T03:09:45.859Z,9.40
2019-05-14T03:12:39.290Z,9.33
2019-05-14T03:15:29.112Z,9.27
2019-05-14T03:18:20.053Z,9.20
2019-05-14T03:21:10.620Z,9.14
2019-05-14T03:24:01.038Z,9.09
2019-05-14T03:26:51.179Z,9.05
2019-05-14T03:29:41.115Z,8.98
2019-05-14T03:32:32.850Z,8.93
2019-05-14T03:35:33.259Z,8.88
2019-05-14T03:38:15.210Z,8.85
2019-05-14T03:41:05.512Z,8.80
2019-05-14T03:43:55.872Z,8.78
2019-05-14T03:46:54.902Z,8.76
2019-05-14T03:49:39.761Z,8.75
2019-05-14T03:52:30.243Z,8.76
2019-05-14T03:55:20.407Z,8.76
2019-05-14T03:58:10.458Z,8.79
2019-05-14T04:01:02.964Z,8.82
2019-05-14T04:03:53.176Z,8.85
2019-05-14T04:06:49.688Z,8.90
2019-05-14T04:09:40.398Z,8.94
2019-05-14T04:12:34.122Z,8.98
2019-05-14T04:15:29.896Z,9.05
2019-05-14T04:18:22.023Z,9.11
2019-05-14T04:21:15.021Z,9.15
2019-05-14T04:24:05.373Z,9.22
2019-05-14T04:27:07.371Z,9.30
2019-05-14T04:29:55.087Z,9.36
2019-05-14T04:32:50.277Z,9.45
2019-05-14T04:35:40.193Z,9.54
2019-05-14T04:38:30.419Z,9.59
2019-05-14T04:41:20.707Z,9.63
2019-05-14T04:44:10.611Z,9.66
2019-05-14T04:47:21.575Z,9.72
2019-05-14T04:49:52.190Z,9.77
2019-05-14T04:52:42.123Z,9.82
2019-05-14T04:55:32.171Z,9.86
2019-05-14T04:58:21.969Z,9.93
2019-05-14T05:01:11.531Z,10.09
2019-05-14T05:04:02.207Z,10.29
2019-05-14T05:06:52.222Z,10.49
2019-05-14T05:09:41.939Z,10.70
2019-05-14T05:12:31.802Z,10.83
2019-05-14T05:15:22.153Z,10.99
2019-05-14T05:18:12.101Z,11.12
2019-05-14T05:21:02.422Z,11.18
2019-05-14T05:23:52.333Z,11.26
2019-05-14T05:26:42.484Z,11.38
2019-05-14T05:29:32.768Z,11.51
2019-05-14T05:32:22.488Z,11.74
2019-05-14T05:35:12.371Z,11.98
2019-05-14T05:38:02.113Z,12.24
2019-05-14T05:40:51.936Z,12.45
2019-05-14T05:43:42.072Z,12.59
2019-05-14T05:46:32.136Z,12.69
2019-05-14T05:49:22.198Z,12.82
2019-05-14T05:52:12.240Z,13.06
2019-05-14T05:55:03.129Z,13.39
2019-05-14T05:57:53.428Z,13.78
2019-05-14T06:00:43.248Z,14.18
2019-05-14T06:03:33.125Z,14.47
2019-05-14T06:06:23.402Z,14.68
2019-05-14T06:09:13.919Z,14.84
2019-05-14T06:12:03.574Z,15.00
2019-05-14T06:14:53.378Z,15.13
2019-05-14T06:17:43.638Z,15.28
2019-05-14T06:20:33.964Z,15.39
2019-05-14T06:23:23.794Z,15.46
2019-05-14T06:26:14.139Z,15.58
2019-05-14T06:29:04.204Z,15.68
2019-05-14T06:31:54.155Z,15.78
2019-05-14T06:34:43.769Z,15.90
2019-05-14T06:37:33.909Z,16.05
2019-05-14T06:40:23.734Z,16.13
2019-05-14T06:43:13.549Z,16.17
2019-05-14T06:46:03.364Z,16.23
2019-05-14T06:48:52.836Z,16.29
2019-05-14T06:51:42.731Z,16.36
2019-05-14T06:54:32.492Z,16.48
2019-05-14T06:57:22.178Z,16.59
2019-05-14T07:00:12.829Z,16.68
2019-05-14T07:03:02.455Z,16.70
2019-05-14T07:05:52.964Z,16.71
2019-05-14T07:08:43.152Z,16.68
2019-05-14T07:11:32.980Z,16.66
2019-05-14T07:14:22.814Z,16.69
2019-05-14T07:17:12.538Z,16.66
2019-05-14T07:20:02.640Z,16.65
2019-05-14T07:22:52.463Z,16.60
2019-05-14T07:25:41.867Z,16.51
2019-05-14T07:28:31.828Z,16.56
2019-05-14T07:31:21.891Z,16.56
2019-05-14T07:34:11.765Z,16.64
2019-05-14T07:37:01.835Z,16.86
2019-05-14T07:39:51.456Z,17.03
2019-05-14T07:42:41.006Z,17.32
2019-05-14T07:45:33.349Z,17.66
2019-05-14T07:48:22.461Z,18.28
2019-05-14T07:51:12.392Z,18.53
2019-05-14T07:54:02.283Z,18.66
2019-05-14T07:56:53.070Z,18.66
2019-05-14T07:59:43.644Z,18.68
2019-05-14T08:02:33.818Z,18.64
2019-05-14T08:05:23.837Z,18.61
2019-05-14T08:08:13.675Z,18.60
2019-05-14T08:11:03.675Z,18.51
2019-05-14T08:13:53.917Z,18.56
2019-05-14T08:16:44.262Z,18.60
2019-05-14T08:19:34.651Z,18.71
2019-05-14T08:22:24.508Z,18.74
2019-05-14T08:25:15.054Z,18.73
2019-05-14T08:28:04.865Z,18.52
2019-05-14T08:30:54.734Z,18.30
2019-05-14T08:33:44.662Z,18.01
2019-05-14T08:36:34.450Z,17.83
2019-05-14T08:39:24.711Z,17.73
2019-05-14T08:42:14.810Z,17.50
2019-05-14T08:45:10.598Z,17.43
2019-05-14T08:47:58.669Z,17.34
2019-05-14T08:50:48.871Z,17.24
2019-05-14T08:53:39.035Z,17.04
2019-05-14T08:56:29.041Z,17.08
2019-05-14T08:59:19.668Z,17.21
2019-05-14T09:02:10.874Z,17.30
2019-05-14T09:05:03.733Z,17.42
2019-05-14T09:07:52.815Z,17.56
2019-05-14T09:10:42.754Z,17.75
2019-05-14T09:13:32.753Z,18.26
2019-05-14T09:16:38.346Z,18.59
2019-05-14T09:19:14.469Z,18.72
2019-05-14T09:22:04.327Z,18.72
2019-05-14T09:24:54.031Z,18.76
2019-05-14T09:27:43.945Z,18.70
2019-05-14T09:30:33.789Z,18.58
2019-05-14T09:33:24.457Z,18.42
2019-05-14T09:36:19.331Z,18.26
2019-05-14T09:39:11.997Z,18.22
2019-05-14T09:42:00.082Z,18.15
2019-05-14T09:44:50.068Z,18.09
2019-05-14T09:47:40.044Z,18.00
2019-05-14T09:50:30.419Z,17.95
2019-05-14T09:53:20.728Z,17.92
2019-05-14T09:56:10.738Z,17.77
2019-05-14T09:59:00.666Z,17.48
2019-05-14T10:01:51.004Z,17.26
2019-05-14T10:04:40.803Z,17.11
2019-05-14T10:07:30.982Z,17.03
2019-05-14T10:10:21.939Z,17.02
2019-05-14T10:13:11.978Z,17.04
2019-05-14T10:16:02.093Z,17.44
2019-05-14T10:18:53.050Z,17.90
2019-05-14T10:21:43.090Z,18.21
2019-05-14T10:24:33.099Z,18.33
2019-05-14T10:27:23.074Z,18.39
2019-05-14T10:30:13.000Z,18.92
2019-05-14T10:33:09.579Z,20.22
2019-05-14T10:35:55.389Z,20.91
2019-05-14T10:38:45.585Z,20.94
2019-05-14T10:41:38.540Z,20.59
2019-05-14T10:44:29.216Z,20.08
2019-05-14T10:47:19.526Z,20.01
2019-05-14T10:50:13.863Z,20.65
2019-05-14T10:53:01.980Z,21.70
2019-05-14T10:55:52.169Z,22.14
2019-05-14T10:58:42.554Z,22.09
2019-05-14T11:01:32.595Z,21.78
2019-05-14T11:04:22.198Z,21.38
2019-05-14T11:07:12.290Z,20.98
2019-05-14T11:10:02.199Z,20.86
2019-05-14T11:12:55.067Z,21.15
2019-05-14T11:15:44.952Z,21.57
2019-05-14T11:18:34.915Z,21.27
2019-05-14T11:21:27.582Z,20.99
2019-05-14T11:24:18.870Z,20.66
2019-05-14T11:27:09.908Z,20.43
2019-05-14T11:30:00.031Z,20.69
2019-05-14T11:32:50.487Z,20.92
2019-05-14T11:35:40.679Z,20.87
2019-05-14T11:38:37.147Z,20.79
2019-05-14T11:41:22.675Z,20.70
2019-05-14T11:44:12.495Z,20.58
2019-05-14T11:47:02.868Z,20.63
2019-05-14T11:49:52.325Z,20.72
2019-05-14T11:52:42.313Z,20.71
2019-05-14T11:55:32.625Z,20.99
2019-05-14T11:58:22.715Z,21.51
2019-05-14T12:01:12.896Z,21.58
2019-05-14T12:04:02.997Z,21.47
2019-05-14T12:06:52.812Z,21.25
2019-05-14T12:09:42.601Z,20.74
2019-05-14T12:12:32.684Z,20.44
2019-05-14T12:15:22.505Z,20.29
2019-05-14T12:18:12.523Z,20.24
2019-05-14T12:21:01.976Z,20.08
2019-05-14T12:23:51.979Z,19.97
2019-05-14T12:26:42.069Z,19.84
2019-05-14T12:29:32.337Z,19.73
2019-05-14T12:32:22.226Z,19.79
2019-05-14T12:35:12.538Z,19.86
2019-05-14T12:38:02.614Z,19.97
2019-05-14T12:40:52.385Z,20.02
2019-05-14T12:43:43.947Z,20.08
2019-05-14T12:46:34.388Z,20.15
2019-05-14T12:49:25.137Z,20.30
2019-05-14T12:52:24.599Z,20.44
2019-05-14T12:55:09.091Z,20.70
2019-05-14T12:57:59.837Z,20.78
2019-05-14T13:00:49.998Z,20.87
2019-05-14T13:03:40.444Z,20.77
2019-05-14T13:06:30.224Z,20.52
2019-05-14T13:09:21.700Z,20.32
2019-05-14T13:12:11.574Z,20.08
2019-05-14T13:15:01.337Z,19.81
2019-05-14T13:17:51.184Z,19.57
2019-05-14T13:20:40.628Z,19.42
2019-05-14T13:23:30.566Z,19.35
2019-05-14T13:26:20.430Z,19.34
2019-05-14T13:29:10.959Z,19.37
2019-05-14T13:32:01.399Z,19.33
2019-05-14T13:34:52.501Z,19.27
2019-05-14T13:37:42.653Z,19.35
2019-05-14T13:40:32.841Z,19.42
2019-05-14T13:43:22.786Z,19.49
2019-05-14T13:46:14.966Z,19.44
2019-05-14T13:49:05.415Z,19.61
2019-05-14T13:51:55.297Z,19.65
2019-05-14T13:54:45.330Z,19.53
2019-05-14T13:57:35.368Z,19.62
2019-05-14T14:00:26.722Z,19.81
2019-05-14T14:03:19.679Z,20.02
2019-05-14T14:06:10.414Z,20.11
2019-05-14T14:09:00.224Z,20.16
2019-05-14T14:11:50.279Z,20.14
2019-05-14T14:14:39.528Z,20.05
2019-05-14T14:17:29.389Z,20.04
2019-05-14T14:20:19.690Z,19.99
2019-05-14T14:23:21.792Z,19.86
2019-05-14T14:26:01.089Z,19.58
2019-05-14T14:28:50.986Z,19.14
2019-05-14T14:31:41.819Z,18.86
2019-05-14T14:34:35.183Z,18.63
2019-05-14T14:37:24.867Z,18.33
2019-05-14T14:40:15.627Z,18.19
2019-05-14T14:43:05.462Z,18.00
2019-05-14T14:45:55.569Z,17.94
2019-05-14T14:48:48.660Z,17.88
2019-05-14T14:51:43.846Z,17.89
2019-05-14T14:54:28.895Z,17.96
2019-05-14T14:57:20.143Z,18.00
2019-05-14T15:00:12.079Z,18.01
2019-05-14T15:03:02.033Z,18.14
2019-05-14T15:05:51.999Z,18.19
2019-05-14T15:08:41.602Z,18.19
2019-05-14T15:11:31.371Z,18.19
2019-05-14T15:14:21.365Z,18.21
2019-05-14T15:17:10.933Z,18.04
2019-05-14T15:20:01.098Z,17.92
2019-05-14T15:22:51.476Z,17.77
2019-05-14T15:25:41.684Z,17.75
2019-05-14T15:28:34.385Z,17.72
2019-05-14T15:31:23.281Z,17.68
2019-05-14T15:34:13.359Z,17.65
2019-05-14T15:37:03.434Z,17.63
2019-05-14T15:39:53.759Z,17.61
2019-05-14T15:42:43.988Z,17.51
2019-05-14T15:45:34.091Z,17.50
2019-05-14T15:48:24.090Z,17.51
2019-05-14T15:51:15.161Z,17.47
2019-05-14T15:54:34.548Z,17.48
2019-05-14T15:57:00.786Z,17.50
2019-05-14T15:59:50.642Z,17.50
2019-05-14T16:02:40.952Z,17.50
2019-05-14T16:05:30.675Z,17.49
2019-05-14T16:08:22.718Z,17.48
2019-05-14T16:11:12.222Z,17.47
2019-05-14T16:14:02.244Z,17.34
2019-05-14T16:16:52.271Z,17.27
2019-05-14T16:19:43.614Z,17.27
2019-05-14T16:22:33.223Z,17.27
2019-05-14T16:25:23.082Z,17.26
2019-05-14T16:28:13.147Z,17.27
2019-05-14T16:31:03.082Z,17.28
2019-05-14T16:33:53.095Z,17.21
2019-05-14T16:36:43.154Z,17.15
2019-05-14T16:39:33.095Z,17.12
2019-05-14T16:42:23.288Z,16.98
2019-05-14T16:45:14.653Z,16.92
2019-05-14T16:48:05.262Z,16.88
2019-05-14T16:50:55.245Z,16.88
2019-05-14T16:53:48.815Z,16.83
2019-05-14T16:56:41.376Z,16.86
2019-05-14T16:59:29.950Z,16.80
2019-05-14T17:02:19.846Z,16.81
2019-05-14T17:05:10.505Z,16.82
2019-05-14T17:08:00.079Z,16.82
2019-05-14T17:10:50.311Z,16.74
2019-05-14T17:13:40.636Z,16.72
2019-05-14T17:16:30.727Z,16.70
2019-05-14T17:19:20.913Z,16.72
2019-05-14T17:22:24.344Z,16.71
2019-05-14T17:25:02.082Z,16.66
2019-05-14T17:27:53.270Z,16.61
2019-05-14T17:30:43.124Z,16.53
2019-05-14T17:33:33.410Z,16.47
2019-05-14T17:36:22.999Z,16.47
2019-05-14T17:39:13.474Z,16.38
2019-05-14T17:42:04.227Z,16.35
2019-05-14T17:44:54.534Z,16.30
2019-05-14T17:47:44.448Z,16.20
2019-05-14T17:50:34.522Z,16.14
2019-05-14T17:53:24.537Z,16.06
2019-05-14T17:56:14.629Z,15.99
2019-05-14T17:59:05.323Z,16.00
2019-05-14T18:01:58.075Z,15.95
2019-05-14T18:04:48.807Z,15.89
2019-05-14T18:07:38.555Z,15.83
2019-05-14T18:10:28.564Z,15.73
2019-05-14T18:13:19.138Z,15.64
2019-05-14T18:16:09.294Z,15.59
2019-05-14T18:18:59.492Z,15.57
2019-05-14T18:21:51.719Z,15.46
2019-05-14T18:24:41.730Z,15.40
2019-05-14T18:27:31.873Z,15.32
2019-05-14T18:30:21.763Z,15.27
2019-05-14T18:33:11.518Z,15.20
2019-05-14T18:36:01.566Z,15.13
2019-05-14T18:38:51.528Z,15.07
2019-05-14T18:41:41.623Z,15.02
2019-05-14T18:44:31.824Z,14.99
2019-05-14T18:47:22.718Z,14.92
2019-05-14T18:50:13.277Z,14.87
2019-05-14T18:53:05.301Z,14.80
2019-05-14T18:55:55.512Z,14.76
2019-05-14T18:58:45.784Z,14.69
2019-05-14T19:01:39.481Z,14.65
2019-05-14T19:04:28.408Z,14.58
2019-05-14T19:07:18.862Z,14.49
2019-05-14T19:10:09.485Z,14.39
2019-05-14T19:12:59.434Z,14.33
2019-05-14T19:15:49.768Z,14.29
2019-05-14T19:18:40.036Z,14.23
2019-05-14T19:21:31.523Z,14.14
2019-05-14T19:24:21.583Z,14.10
2019-05-14T19:27:11.766Z,14.02
2019-05-14T19:30:03.219Z,13.96
2019-05-14T19:32:53.704Z,13.92
2019-05-14T19:35:43.878Z,13.85
2019-05-14T19:38:33.809Z,13.82
2019-05-14T19:41:24.195Z,13.81
2019-05-14T19:44:14.412Z,13.73
2019-05-14T19:47:04.608Z,13.69
2019-05-14T19:49:55.231Z,13.68
2019-05-14T19:52:45.311Z,13.64
2019-05-14T19:55:35.086Z,13.59
2019-05-14T19:58:25.293Z,13.55
2019-05-14T20:01:15.297Z,13.45
2019-05-14T20:04:05.792Z,13.47
2019-05-14T20:07:14.705Z,13.42
2019-05-14T20:10:05.415Z,13.41
2019-05-14T20:12:55.699Z,13.38
2019-05-14T20:15:48.472Z,13.31
2019-05-14T20:18:38.718Z,13.21
2019-05-14T20:21:28.697Z,13.16
2019-05-14T20:24:19.019Z,13.08
2019-05-14T20:27:12.145Z,13.09
2019-05-14T20:30:00.502Z,13.06
2019-05-14T20:32:50.880Z,13.02
2019-05-14T20:35:40.959Z,13.02
2019-05-14T20:38:32.108Z,12.98
2019-05-14T20:41:23.244Z,12.91
2019-05-14T20:44:13.312Z,12.80
2019-05-14T20:47:03.955Z,12.79
2019-05-14T20:49:54.477Z,12.71
2019-05-14T20:52:44.765Z,12.65
2019-05-14T20:55:34.767Z,12.65
2019-05-14T20:58:25.127Z,12.60
2019-05-14T21:01:15.313Z,12.57
2019-05-14T21:04:05.417Z,12.57
2019-05-14T21:06:55.768Z,12.54
2019-05-14T21:09:45.823Z,12.52
2019-05-14T21:12:35.830Z,12.50
2019-05-14T21:15:28.255Z,12.49
2019-05-14T21:18:19.000Z,12.42
2019-05-14T21:21:11.191Z,12.36
2019-05-14T21:24:01.073Z,12.33
2019-05-14T21:26:50.563Z,12.32
2019-05-14T21:29:40.685Z,12.28
2019-05-14T21:32:30.400Z,12.26
2019-05-14T21:35:21.123Z,12.22
2019-05-14T21:38:11.055Z,12.18
2019-05-14T21:41:01.096Z,11.65
2019-05-14T21:43:51.105Z,12.11
2019-05-14T21:46:41.638Z,12.07
2019-05-14T21:49:31.925Z,12.04
2019-05-14T21:52:22.093Z,12.01
2019-05-14T21:55:12.065Z,11.93
2019-05-14T21:58:01.880Z,11.90
2019-05-14T22:00:56.070Z,11.83
2019-05-14T22:03:48.408Z,11.81
2019-05-14T22:06:40.894Z,11.76
2019-05-14T22:09:29.350Z,11.71
2019-05-14T22:12:20.644Z,11.67
2019-05-14T22:15:10.773Z,11.62
2019-05-14T22:18:00.628Z,11.56
2019-05-14T22:20:50.192Z,11.54
2019-05-14T22:23:40.310Z,11.51
2019-05-14T22:26:30.326Z,11.47
2019-05-14T22:29:20.278Z,11.43
2019-05-14T22:32:10.369Z,11.36
2019-05-14T22:35:00.381Z,11.28
2019-05-14T22:37:50.144Z,11.25
2019-05-14T22:40:39.919Z,11.23
2019-05-14T22:43:29.893Z,11.19
2019-05-14T22:46:19.997Z,11.13
2019-05-14T22:49:09.849Z,11.09
2019-05-14T22:51:59.883Z,11.06
2019-05-14T22:54:49.883Z,11.01
2019-05-14T22:57:39.899Z,10.99
2019-05-14T23:00:29.802Z,10.97
2019-05-14T23:03:21.208Z,10.92
2019-05-14T23:06:11.069Z,10.88
2019-05-14T23:09:01.002Z,10.79
2019-05-14T23:11:52.420Z,10.72
2019-05-14T23:14:42.680Z,10.70
2019-05-14T23:17:32.629Z,10.69
2019-05-14T23:20:22.791Z,10.61
2019-05-14T23:23:12.657Z,10.61
2019-05-14T23:26:02.638Z,10.62
2019-05-14T23:28:52.805Z,10.57
2019-05-14T23:31:42.805Z,10.55
2019-05-14T23:34:32.894Z,10.51
2019-05-14T23:37:22.749Z,10.49
2019-05-14T23:40:13.123Z,10.45
2019-05-14T23:43:02.323Z,10.40
2019-05-14T23:54:44.035Z,10.06
2019-05-14T23:57:34.609Z,9.78
